METAR Data
IDs: Format: Raw Decoded Include TAF

Data at: 0924 UTC 26 Jan 2020

KARV 260915Z AUTO 31005KT 10SM OVC007 00/M01 A2981 RMK AO2 T10011010
KARV 260855Z AUTO 32008KT 10SM OVC007 00/M01 A2981 RMK AO2 T10011010
KARV 260835Z AUTO 31005KT 10SM OVC005 00/M01 A2981 RMK AO2 T10011010
KARV 260815Z AUTO 32006KT 10SM OVC005 00/M01 A2981 RMK AO2 T10011011
KARV 260755Z AUTO 30006KT 10SM OVC005 00/M01 A2981 RMK AO2 T10011011
KARV 260735Z AUTO 32005KT 10SM OVC007 00/M01 A2981 RMK AO2 T10011010
KARV 260715Z AUTO 32005KT 10SM OVC007 00/M01 A2981 RMK AO2 T10011011
KARV 260655Z AUTO 31005KT 10SM OVC007 00/M01 A2981 RMK AO2 T10011011
KARV 260635Z AUTO 31004KT 10SM OVC007 00/M01 A2981 RMK AO2 T10011011
KARV 260615Z AUTO 32004KT 10SM OVC007 00/M01 A2981 RMK AO2 T10011011
KARV 260555Z AUTO 32003KT 10SM OVC007 00/M01 A2981 RMK AO2 T10011011 11001 21001 400251001
KARV 260535Z AUTO 33004KT 10SM OVC007 00/M01 A2981 RMK AO2 T10011012
KARV 260515Z AUTO 32006KT 10SM OVC007 00/M01 A2981 RMK AO2 T10011012
KARV 260455Z AUTO 32005KT 10SM OVC007 00/M01 A2981 RMK AO2 T10011010
KARV 260435Z AUTO 33005KT 10SM OVC007 00/M01 A2981 RMK AO2 T10011010
KARV 260415Z AUTO 33004KT 10SM OVC007 00/M01 A2981 RMK AO2 T10011010
KARV 260355Z AUTO 33004KT 10SM OVC007 00/M01 A2981 RMK AO2 T10011015
KARV 260335Z AUTO 32004KT 7SM -SN OVC007 00/M01 A2981 RMK AO2 T10011013
KARV 260315Z AUTO 32004KT 10SM OVC007 00/M01 A2981 RMK AO2 T10011010
KARV 260255Z AUTO 33005KT 10SM OVC009 00/M01 A2981 RMK AO2 T10011010
KARV 260235Z AUTO 34004KT 5SM -SN SCT006 BKN009 OVC014 00/M01 A2980 RMK AO2 T10011010
KARV 260215Z AUTO 34005KT 2 1/2SM -SN SCT008 OVC013 00/M01 A2981 RMK AO2 T10011010
KARV 260155Z AUTO 33006KT 4SM -SN BKN009 OVC014 00/M01 A2981 RMK AO2 T10011010
KARV 260135Z AUTO 33006KT 7SM -SN BKN011 BKN019 OVC024 00/M01 A2981 RMK AO2 T10011011
KARV 260115Z AUTO 34005KT 3SM -SN BKN009 OVC014 00/M01 A2981 RMK AO2 T10011010
KARV 260055Z AUTO 34005KT 2 1/2SM -SN BKN007 OVC012 00/M01 A2981 RMK AO2 T10011010
KARV 260035Z AUTO 33006KT 2 1/2SM -SN BKN012 OVC021 00/M01 A2981 RMK AO2 T10011011
KARV 260015Z AUTO 32007KT 4SM -SN BKN012 OVC017 00/M01 A2981 RMK AO2 T10011011
KARV 252355Z AUTO 33007KT 5SM -SN SCT006 BKN013 OVC027 00/M01 A2980 RMK AO2 T10011011 10025 21001
KARV 252335Z AUTO 32005KT 4SM -SN SCT006 OVC011 00/M01 A2980 RMK AO2 T10011010
KARV 252315Z AUTO 33006KT 2 1/2SM -SN BKN008 OVC013 00/M01 A2980 RMK AO2 T00001010
KARV 252255Z AUTO 34007KT 1 1/4SM -SN BKN006 OVC013 00/M01 A2979 RMK AO2 T00001007
KARV 252235Z AUTO 33005KT 3SM -SN SCT007 BKN011 OVC016 01/00 A2979 RMK AO2 T00051005
KARV 252215Z AUTO 33006KT 3SM -SN SCT006 OVC010 01/00 A2979 RMK AO2 T00051003
KARV 252155Z AUTO 34007KT 1 3/4SM -SN BKN010 OVC014 01/M01 A2979 RMK AO2 T00051008
KARV 252135Z AUTO 33009KT 4SM -SN SCT006 BKN009 OVC017 01/M01 A2979 RMK AO2 T00051007
KARV 252115Z AUTO 33008KT 2 1/2SM -SN SCT005 OVC010 01/00 A2979 RMK AO2 T00100001
KARV 252055Z AUTO 33007KT 1 1/2SM -SN OVC008 01/00 A2979 RMK AO2 T00110001
KARV 252035Z AUTO 33006KT 4SM -SN SCT008 BKN013 OVC025 01/00 A2979 RMK AO2 T00110000
KARV 252015Z AUTO 34009KT 2 1/2SM -SN BKN010 OVC015 01/00 A2978 RMK AO2 T00110001
KARV 251955Z AUTO 33007KT 1 1/2SM -SN OVC010 02/01 A2978 RMK AO2 T00190008
KARV 251935Z AUTO 34009KT 1 1/4SM -SN BKN008 OVC012 02/01 A2979 RMK AO2 T00240014
KARV 251915Z AUTO 34008KT 3SM -SN BKN010 OVC014 03/02 A2979 RMK AO2 T00250015
KARV 251855Z AUTO 36009KT 2 1/2SM BR SCT008 BKN013 OVC020 03/02 A2979 RMK AO2 VIS 2V4 T00250015
KARV 251835Z AUTO 35006KT 3SM -SN BKN008 OVC014 02/01 A2979 RMK AO2 T00240014
KARV 251815Z AUTO 35006KT 2 1/2SM -SN BKN009 OVC014 03/02 A2979 RMK AO2 T00250015
KARV 251755Z AUTO 35009KT 2SM -SN BKN007 OVC012 03/02 A2979 RMK AO2 60002 T00250015 10025 21001
KARV 251735Z AUTO 35006KT 3SM -SN BKN008 OVC014 03/02 A2980 RMK AO2 T00250015
KARV 251715Z AUTO 35007KT 5SM BR SCT006 BKN010 OVC038 01/00 A2980 RMK AO2 T00110001
KARV 251655Z AUTO 36006KT 3SM -SN SCT006 BKN010 OVC036 01/00 A2981 RMK AO2 T00110000
KARV 251635Z AUTO 35007KT 1 1/2SM -SN OVC008 01/00 A2981 RMK AO2 T00110001
KARV 251615Z AUTO 36006KT 1 1/2SM -SN BKN008 OVC013 01/00 A2981 RMK AO2 T00110001
KARV 251555Z AUTO 36006KT 3SM -SN SCT008 BKN012 OVC027 01/00 A2981 RMK AO2 T00070000
KARV 251535Z AUTO 36005KT 2 1/2SM -SN BKN008 BKN021 OVC036 01/00 A2981 RMK AO2 T00051003
KARV 251515Z AUTO 36005KT 2SM -SN OVC008 00/M01 A2980 RMK AO2 VIS 1V4 T00011006
KARV 251455Z AUTO 36004KT 3SM -SN BKN006 OVC012 00/M01 A2980 RMK AO2 P0001 60002 T10011010
KARV 251435Z AUTO 36004KT 1SM -SN OVC006 00/M01 A2980 RMK AO2 T10011010
KARV 251415Z AUTO 36005KT 2 1/2SM -SN BKN009 OVC012 00/M01 A2980 RMK AO2 T10011010
KARV 251355Z AUTO 36005KT 2 1/2SM -SN OVC010 00/M01 A2980 RMK AO2 P0001 T10011010
KARV 251335Z AUTO 01005KT 2SM -SN OVC006 00/M01 A2980 RMK AO2 P0001 T10011010
KARV 251315Z AUTO 36006KT 1 3/4SM -SN OVC008 00/M01 A2980 RMK AO2 P0001 T10011010
KARV 251255Z AUTO 36006KT 2SM -SN BKN008 OVC011 00/M01 A2979 RMK AO2 T10011010
KARV 251235Z AUTO 36006KT 7SM -SN OVC008 00/M01 A2979 RMK AO2 T10011010
KARV 251215Z AUTO 36006KT 5SM -SN BKN008 OVC015 00/M01 A2979 RMK AO2 T10011010
KARV 251155Z AUTO 36005KT 5SM -SN SCT006 BKN012 OVC017 00/M01 A2979 RMK AO2 60001 70001 T10011010 11001 21001
KARV 251135Z AUTO 36005KT 4SM -SN SCT007 OVC012 00/M01 A2979 RMK AO2 T10011015
KARV 251115Z AUTO 36005KT 3SM -SN OVC009 00/M01 A2979 RMK AO2 T10011015
KARV 251055Z AUTO 36005KT 2 1/2SM -SN BKN009 OVC017 00/M02 A2979 RMK AO2 T10011017
KARV 251035Z AUTO 35005KT 3SM -SN SCT007 BKN010 OVC015 00/M02 A2979 RMK AO2 T10011016
KARV 251015Z AUTO 36005KT 7SM -SN BKN007 OVC014 00/M02 A2979 RMK AO2 T10011016
KARV 250955Z AUTO 36004KT 5SM -SN BKN007 OVC012 00/M01 A2978 RMK AO2 T10011015
KARV 250935Z AUTO 01004KT 1 1/2SM -SN BKN007 OVC012 00/M02 A2978 RMK AO2 T10011016
KARV 250915Z AUTO 01004KT 4SM -SN BKN007 BKN010 OVC015 00/M01 A2979 RMK AO2 T10011015
KARV 250855Z AUTO 36005KT 4SM -SN BKN007 BKN013 OVC018 00/M01 A2979 RMK AO2 60001 T10011015
KARV 250835Z AUTO 36004KT 3SM -SN SCT009 BKN013 OVC034 00/M01 A2979 RMK AO2 T10011015
KARV 250815Z AUTO 01004KT 2 1/2SM -SN BKN009 BKN016 OVC032 00/M01 A2980 RMK AO2 VIS 1 1/2V4 T10011015
KARV 250755Z AUTO 01004KT 1 3/4SM -SN OVC007 00/M01 A2980 RMK AO2 T10011015
KARV 250735Z AUTO 36005KT 2 1/2SM -SN SCT005 OVC010 00/M01 A2980 RMK AO2 VIS 1 1/2V3 T10011013
KARV 250715Z AUTO 36005KT 4SM -SN BKN007 OVC012 00/M01 A2981 RMK AO2 T10011013
KARV 250655Z AUTO 01004KT 3SM -SN BKN007 OVC012 00/M01 A2981 RMK AO2 P0001 T10011010
KARV 250635Z AUTO 01004KT 7SM -SN BKN007 BKN017 OVC026 00/M01 A2982 RMK AO2 P0001 T10011010
KARV 250615Z AUTO 01004KT 2 1/2SM -SN BKN005 OVC024 00/M01 A2983 RMK AO2 P0001 T10011010
KARV 250555Z AUTO 01004KT 1 1/4SM -SN OVC005 00/M01 A2983 RMK AO2 T10011010 10011 21001 400251001
KARV 250535Z AUTO 02004KT 4SM -SN BKN007 OVC010 00/M01 A2984 RMK AO2 T00001010
KARV 250515Z AUTO 01004KT 7SM -SN OVC005 00/M01 A2983 RMK AO2 T00001008
KARV 250455Z AUTO 01004KT 4SM -SN OVC005 00/M01 A2984 RMK AO2 T00001011
KARV 250435Z AUTO 03005KT 7SM OVC003 00/M01 A2984 RMK AO2 T00001011
KARV 250415Z AUTO 03004KT 7SM OVC003 00/M01 A2984 RMK AO2 T00001008
KARV 250355Z AUTO 04005KT 4SM BR OVC003 00/M01 A2984 RMK AO2 T00021008
KARV 250335Z AUTO 03005KT 4SM BR OVC003 00/M01 A2985 RMK AO2 T00041007
KARV 250315Z AUTO 01004KT 7SM OVC005 01/M01 A2985 RMK AO2 T00051006
KARV 250255Z AUTO 02004KT 10SM OVC007 01/00 A2986 RMK AO2 T00051005
KARV 250235Z AUTO 02004KT 4SM -SN BKN007 OVC012 01/00 A2987 RMK AO2 T00051003
KARV 250215Z AUTO 02004KT 3SM -SN OVC007 01/00 A2988 RMK AO2 T00051002
KARV 250155Z AUTO 03003KT 2 1/2SM -SN OVC005 01/00 A2988 RMK AO2 T00110002
KARV 250135Z AUTO 02003KT 2 1/2SM -SN OVC007 01/00 A2989 RMK AO2 T00110003
KARV 250115Z AUTO 03003KT 2 1/2SM -SN OVC007 01/01 A2989 RMK AO2 T00110005
KARV 250055Z AUTO 03004KT 5SM -SN OVC007 01/00 A2989 RMK AO2 T00110002
KARV 250035Z AUTO 02003KT 4SM -SN BKN007 OVC012 01/00 A2990 RMK AO2 T00110001
KARV 250015Z AUTO 03003KT 3SM -SN BKN007 OVC011 01/00 A2990 RMK AO2 T00110000
KARV 242355Z AUTO 05004KT 4SM UP OVC007 01/00 A2990 RMK AO2 T00110002 10025 20011
KARV 242335Z AUTO 04003KT 4SM -SN BKN007 OVC012 01/00 A2990 RMK AO2 T00110003
KARV 242315Z AUTO 03003KT 4SM -SN SCT005 OVC010 01/00 A2990 RMK AO2 T00110003
KARV 242255Z AUTO 05004KT 2SM -SN SCT006 OVC010 01/00 A2990 RMK AO2 T00111001
KARV 242235Z AUTO 05003KT 2 1/2SM -SN SCT007 OVC012 01/00 A2990 RMK AO2 T00111004
KARV 242215Z AUTO 04004KT 2 1/2SM -SN SCT006 OVC012 01/00 A2991 RMK AO2 T00111005
KARV 242155Z AUTO 04004KT 2 1/2SM -SN BKN007 OVC014 01/00 A2990 RMK AO2 T00111005
KARV 242135Z AUTO 06003KT 7SM -SN SCT007 OVC012 01/00 A2991 RMK AO2 T00111001